Time;durP1;ratioP1;P1;durP2;ratioP2;P2;SDS_P1;SDS_P2;PMS_P1;PMS_P2;Temp;Humidity;BMP_temperature;BMP_pressure;BME280_temperature;BME280_humidity;BME280_pressure;Samples;Min_cycle;Max_cycle;Signal;HPM_P1;HPM_P2
2022/11/28 00:01:17;;;;;;;27.52;14.63;;;;;;;;;;4933491;29;20039;-74
2022/11/28 00:03:43;;;;;;;25.50;14.70;;;;;;;;;;4933704;29;20024;-75
2022/11/28 00:06:10;;;;;;;22.80;14.70;;;;;;;;;;4934797;29;20035;-73
2022/11/28 00:08:36;;;;;;;24.08;14.32;;;;;;;;;;4940885;29;20043;-74
2022/11/28 00:11:05;;;;;;;20.15;13.50;;;;;;;;;;4935949;29;20506;-74
2022/11/28 00:13:32;;;;;;;33.10;17.83;;;;;;;;;;4933569;29;20453;-74
2022/11/28 00:15:58;;;;;;;28.83;15.52;;;;;;;;;;4933599;29;20332;-75
2022/11/28 00:18:25;;;;;;;26.70;15.68;;;;;;;;;;4934823;29;20075;-73
2022/11/28 00:20:51;;;;;;;24.55;14.40;;;;;;;;;;4916738;29;20035;-74
2022/11/28 00:23:17;;;;;;;21.52;12.70;;;;;;;;;;4948983;28;20051;-73
2022/11/28 00:25:43;;;;;;;21.58;12.93;;;;;;;;;;4959404;28;20150;-74
2022/11/28 00:28:09;;;;;;;21.88;14.05;;;;;;;;;;4953847;28;20034;-74
2022/11/28 00:30:36;;;;;;;19.25;13.63;;;;;;;;;;4950466;28;20437;-74
2022/11/28 00:33:02;;;;;;;26.08;15.15;;;;;;;;;;4946783;28;20036;-74
2022/11/28 00:35:28;;;;;;;34.80;20.00;;;;;;;;;;4950629;28;20369;-74
2022/11/28 00:37:54;;;;;;;21.33;12.60;;;;;;;;;;4950837;28;20499;-74
2022/11/28 00:40:21;;;;;;;19.50;12.07;;;;;;;;;;4956162;28;20444;-74
2022/11/28 00:42:47;;;;;;;24.42;15.00;;;;;;;;;;4950660;28;20480;-76
2022/11/28 00:45:13;;;;;;;22.80;13.93;;;;;;;;;;4944511;28;20408;-75
2022/11/28 00:47:39;;;;;;;20.38;13.68;;;;;;;;;;4952284;28;20034;-74
2022/11/28 00:50:05;;;;;;;20.95;13.15;;;;;;;;;;4936960;29;20027;-75
2022/11/28 00:52:32;;;;;;;17.50;11.93;;;;;;;;;;4950616;28;20118;-75
2022/11/28 00:54:58;;;;;;;29.85;18.60;;;;;;;;;;4927802;29;20031;-75
2022/11/28 00:57:24;;;;;;;19.67;13.13;;;;;;;;;;4955013;28;20035;-75
2022/11/28 00:59:50;;;;;;;22.20;13.55;;;;;;;;;;4953512;29;20449;-74
2022/11/28 01:02:16;;;;;;;26.73;14.93;;;;;;;;;;4949425;28;20396;-75
2022/11/28 01:04:42;;;;;;;22.25;12.25;;;;;;;;;;4952892;28;20036;-76
2022/11/28 01:07:08;;;;;;;19.23;13.57;;;;;;;;;;4950768;28;20449;-75
2022/11/28 01:09:34;;;;;;;22.17;13.73;;;;;;;;;;4953330;28;20459;-77
2022/11/28 01:12:01;;;;;;;19.05;13.13;;;;;;;;;;4953168;28;20027;-75
2022/11/28 01:14:29;;;;;;;22.38;12.80;;;;;;;;;;4948535;28;20077;-76
2022/11/28 01:16:55;;;;;;;15.95;12.20;;;;;;;;;;4950855;28;20042;-76
2022/11/28 01:19:21;;;;;;;18.27;12.27;;;;;;;;;;4952807;29;20043;-75
2022/11/28 01:21:47;;;;;;;20.90;13.68;;;;;;;;;;4948825;28;20032;-75
2022/11/28 01:24:14;;;;;;;24.48;13.20;;;;;;;;;;4962659;28;20429;-75
2022/11/28 01:26:40;;;;;;;20.40;12.35;;;;;;;;;;4950912;28;20480;-77
2022/11/28 01:29:06;;;;;;;21.75;13.02;;;;;;;;;;4949466;28;20019;-75
2022/11/28 01:31:32;;;;;;;21.25;13.27;;;;;;;;;;4960882;28;20038;-74
2022/11/28 01:33:58;;;;;;;21.60;13.32;;;;;;;;;;4953802;28;20092;-75
2022/11/28 01:36:25;;;;;;;22.63;13.70;;;;;;;;;;4961970;28;20035;-74
2022/11/28 01:38:51;;;;;;;19.45;13.15;;;;;;;;;;4951630;28;20063;-74
2022/11/28 01:41:18;;;;;;;18.02;13.88;;;;;;;;;;4951522;28;20055;-75
2022/11/28 01:43:56;;;;;;;22.60;13.23;;;;;;;;;;4948768;28;20486;-75
2022/11/28 01:46:22;;;;;;;26.27;14.55;;;;;;;;;;4947530;28;20063;-74
2022/11/28 01:48:49;;;;;;;21.23;13.38;;;;;;;;;;4954395;28;20086;-74
2022/11/28 01:51:15;;;;;;;21.77;13.40;;;;;;;;;;4952735;29;20031;-75
2022/11/28 01:53:43;;;;;;;20.17;13.80;;;;;;;;;;4949726;28;20039;-76
2022/11/28 01:56:12;;;;;;;21.73;14.05;;;;;;;;;;4951916;28;20047;-75
2022/11/28 01:58:41;;;;;;;28.63;15.65;;;;;;;;;;4951048;28;20070;-75
2022/11/28 02:01:07;;;;;;;22.40;14.93;;;;;;;;;;4950133;28;20445;-75
2022/11/28 02:03:37;;;;;;;26.25;15.98;;;;;;;;;;4955729;28;20575;-76
2022/11/28 02:06:04;;;;;;;24.70;15.02;;;;;;;;;;4952210;28;20106;-76
2022/11/28 02:08:34;;;;;;;20.67;15.05;;;;;;;;;;4949522;28;20051;-77
2022/11/28 02:11:03;;;;;;;22.17;15.38;;;;;;;;;;4949667;28;20138;-75
2022/11/28 02:13:41;;;;;;;25.90;15.13;;;;;;;;;;4952205;28;20102;-75
2022/11/28 02:16:16;;;;;;;24.92;15.27;;;;;;;;;;4950573;28;20034;-75
2022/11/28 02:18:45;;;;;;;21.60;13.93;;;;;;;;;;4948179;28;20034;-76
2022/11/28 02:21:11;;;;;;;24.00;15.90;;;;;;;;;;4952804;28;20031;-75
2022/11/28 02:24:04;;;;;;;24.25;16.33;;;;;;;;;;4950885;28;20051;-75
2022/11/28 02:26:36;;;;;;;19.63;14.77;;;;;;;;;;4920779;29;20091;-75
2022/11/28 02:29:13;;;;;;;20.58;16.25;;;;;;;;;;4951609;29;20043;-75
2022/11/28 02:31:51;;;;;;;21.48;14.95;;;;;;;;;;4946000;28;20039;-74
2022/11/28 02:34:23;;;;;;;24.17;16.27;;;;;;;;;;4938107;28;20200;-74
2022/11/28 02:36:55;;;;;;;22.63;15.88;;;;;;;;;;4949247;28;20042;-73
2022/11/28 02:39:27;;;;;;;24.48;16.40;;;;;;;;;;4957298;28;20043;-75
2022/11/28 02:42:13;;;;;;;20.88;15.63;;;;;;;;;;4947410;28;20062;-76
2022/11/28 02:44:40;;;;;;;25.70;16.58;;;;;;;;;;4946753;28;20039;-75
2022/11/28 02:47:10;;;;;;;22.95;16.60;;;;;;;;;;4949378;28;20114;-75
2022/11/28 02:49:40;;;;;;;24.77;16.17;;;;;;;;;;4951650;28;20036;-74
2022/11/28 02:52:09;;;;;;;27.77;17.02;;;;;;;;;;4948179;28;20107;-75
2022/11/28 02:54:36;;;;;;;28.50;18.27;;;;;;;;;;4952863;28;20039;-74
2022/11/28 02:57:02;;;;;;;28.92;18.23;;;;;;;;;;4953063;28;20031;-75
2022/11/28 02:59:37;;;;;;;25.70;17.35;;;;;;;;;;4963576;28;20031;-75
2022/11/28 03:02:12;;;;;;;31.88;17.95;;;;;;;;;;4964299;28;20031;-75
2022/11/28 03:04:44;;;;;;;28.73;17.60;;;;;;;;;;4970220;28;20341;-77
2022/11/28 03:07:10;;;;;;;23.33;17.60;;;;;;;;;;4949811;28;20050;-75
2022/11/28 03:09:42;;;;;;;25.17;16.88;;;;;;;;;;4952464;28;20031;-75
2022/11/28 03:12:08;;;;;;;28.83;16.92;;;;;;;;;;4936979;28;20505;-75
2022/11/28 03:14:41;;;;;;;28.77;18.20;;;;;;;;;;4946762;28;20109;-76
2022/11/28 03:17:18;;;;;;;24.23;17.50;;;;;;;;;;4945829;28;20031;-75
2022/11/28 03:19:48;;;;;;;26.17;17.98;;;;;;;;;;4957038;28;20035;-75
2022/11/28 03:22:21;;;;;;;23.98;17.58;;;;;;;;;;4951046;28;20033;-76
2022/11/28 03:25:05;;;;;;;25.45;17.58;;;;;;;;;;4949002;28;20051;-75
2022/11/28 03:27:34;;;;;;;25.55;17.08;;;;;;;;;;4946820;28;20304;-74
2022/11/28 03:30:03;;;;;;;24.90;17.73;;;;;;;;;;4964747;28;20564;-74
2022/11/28 03:32:31;;;;;;;27.35;17.77;;;;;;;;;;4949268;28;20441;-73
2022/11/28 03:35:00;;;;;;;28.50;18.10;;;;;;;;;;4957948;28;20049;-75
2022/11/28 03:37:28;;;;;;;25.25;17.73;;;;;;;;;;4962029;28;20020;-76
2022/11/28 03:39:58;;;;;;;27.08;18.20;;;;;;;;;;4953613;28;20570;-76
2022/11/28 03:42:25;;;;;;;25.98;18.38;;;;;;;;;;4958726;28;20038;-75
2022/11/28 03:45:00;;;;;;;24.77;17.83;;;;;;;;;;4953116;28;20043;-75
2022/11/28 03:47:28;;;;;;;23.50;16.80;;;;;;;;;;4949422;28;20114;-75
2022/11/28 03:49:56;;;;;;;29.15;18.13;;;;;;;;;;4950420;29;20035;-76
2022/11/28 03:52:25;;;;;;;25.88;18.33;;;;;;;;;;4941604;28;20087;-76
2022/11/28 03:55:11;;;;;;;24.70;16.58;;;;;;;;;;4952537;28;20071;-74
2022/11/28 03:57:56;;;;;;;25.90;17.48;;;;;;;;;;4938425;28;21258;-77
2022/11/28 04:00:23;;;;;;;22.88;16.67;;;;;;;;;;4961280;28;20468;-74
2022/11/28 04:03:11;;;;;;;27.65;18.52;;;;;;;;;;4935026;28;20035;-74
2022/11/28 04:05:48;;;;;;;25.80;18.17;;;;;;;;;;4951950;28;20479;-74
2022/11/28 04:08:16;;;;;;;23.98;17.23;;;;;;;;;;4964941;28;20118;-75
2022/11/28 04:10:45;;;;;;;24.00;17.42;;;;;;;;;;4950064;28;20380;-75
2022/11/28 04:13:14;;;;;;;27.02;16.15;;;;;;;;;;4952390;28;20032;-75
2022/11/28 04:15:44;;;;;;;24.42;17.45;;;;;;;;;;4955537;28;20113;-75
2022/11/28 04:18:23;;;;;;;25.55;16.63;;;;;;;;;;4935848;29;20520;-74
2022/11/28 04:20:49;;;;;;;24.88;16.48;;;;;;;;;;4939279;28;20036;-74
2022/11/28 04:23:17;;;;;;;25.50;16.98;;;;;;;;;;4953620;28;20043;-75
2022/11/28 04:25:55;;;;;;;23.73;17.15;;;;;;;;;;4936395;29;20043;-74
2022/11/28 04:28:23;;;;;;;25.60;16.45;;;;;;;;;;4934206;29;20032;-75
2022/11/28 04:30:52;;;;;;;23.08;16.10;;;;;;;;;;4932537;29;20042;-75
2022/11/28 04:33:20;;;;;;;23.95;16.10;;;;;;;;;;4916510;29;20028;-75
2022/11/28 04:35:51;;;;;;;23.98;16.35;;;;;;;;;;4919426;29;20039;-74
2022/11/28 04:38:17;;;;;;;27.00;18.13;;;;;;;;;;4923514;29;20019;-74
2022/11/28 04:40:54;;;;;;;22.98;15.55;;;;;;;;;;4947219;29;20038;-75
2022/11/28 04:43:24;;;;;;;22.25;15.52;;;;;;;;;;4941084;29;20031;-74
2022/11/28 04:45:51;;;;;;;24.63;15.90;;;;;;;;;;4940781;29;20028;-76
2022/11/28 04:48:18;;;;;;;22.90;15.93;;;;;;;;;;4932845;29;20164;-74
2022/11/28 04:50:53;;;;;;;23.15;16.35;;;;;;;;;;4932180;29;20090;-79
2022/11/28 04:53:40;;;;;;;22.33;15.27;;;;;;;;;;4933022;29;20039;-76
2022/11/28 04:56:13;;;;;;;23.10;15.68;;;;;;;;;;4932888;29;20044;-77
2022/11/28 04:58:41;;;;;;;20.77;15.07;;;;;;;;;;4932607;29;20047;-75
2022/11/28 05:01:09;;;;;;;21.13;15.40;;;;;;;;;;4916630;29;20031;-75
2022/11/28 05:03:35;;;;;;;24.33;16.42;;;;;;;;;;4932860;29;20473;-75
2022/11/28 05:06:02;;;;;;;21.58;14.27;;;;;;;;;;4942035;29;20050;-75
2022/11/28 05:08:28;;;;;;;22.55;15.63;;;;;;;;;;4918600;29;20035;-76
2022/11/28 05:10:55;;;;;;;21.98;14.77;;;;;;;;;;4928377;29;20058;-75
2022/11/28 05:13:21;;;;;;;21.73;14.65;;;;;;;;;;4929628;29;20028;-75
2022/11/28 05:15:47;;;;;;;25.30;16.38;;;;;;;;;;4930346;29;20032;-79
2022/11/28 05:18:13;;;;;;;19.70;14.15;;;;;;;;;;4934382;29;20062;-74
2022/11/28 05:20:39;;;;;;;29.00;20.98;;;;;;;;;;4922202;29;20043;-77
2022/11/28 05:23:05;;;;;;;26.88;19.23;;;;;;;;;;4933817;29;20535;-73
2022/11/28 05:25:31;;;;;;;22.15;15.05;;;;;;;;;;4937506;28;20042;-74
2022/11/28 05:27:57;;;;;;;23.58;15.43;;;;;;;;;;4951205;28;20039;-72
2022/11/28 05:30:23;;;;;;;25.20;15.82;;;;;;;;;;4952730;28;20031;-74
2022/11/28 05:32:49;;;;;;;20.08;14.50;;;;;;;;;;4944759;29;20024;-71
2022/11/28 05:35:15;;;;;;;22.30;14.10;;;;;;;;;;4944944;29;20548;-71
2022/11/28 05:37:41;;;;;;;17.98;13.82;;;;;;;;;;4953190;29;20027;-71
2022/11/28 05:40:08;;;;;;;20.48;14.95;;;;;;;;;;4959441;28;20087;-75
2022/11/28 05:42:35;;;;;;;18.13;13.65;;;;;;;;;;4953508;28;20031;-74
2022/11/28 05:45:01;;;;;;;19.48;14.23;;;;;;;;;;4962157;28;20508;-72
2022/11/28 05:47:29;;;;;;;19.02;13.25;;;;;;;;;;4923776;28;20488;-74
2022/11/28 05:49:55;;;;;;;18.55;13.35;;;;;;;;;;4949877;28;20031;-73
2022/11/28 05:52:21;;;;;;;16.55;12.77;;;;;;;;;;4961054;28;20718;-76
2022/11/28 05:54:47;;;;;;;16.90;12.95;;;;;;;;;;4957671;28;20043;-74
2022/11/28 05:57:14;;;;;;;19.52;12.73;;;;;;;;;;4972101;28;20023;-72
2022/11/28 05:59:40;;;;;;;15.65;12.05;;;;;;;;;;4939731;29;20031;-72
2022/11/28 06:02:06;;;;;;;17.30;12.70;;;;;;;;;;4933678;28;20588;-72
2022/11/28 06:04:32;;;;;;;16.60;12.68;;;;;;;;;;4944726;28;20424;-73
2022/11/28 06:06:58;;;;;;;18.02;12.90;;;;;;;;;;4962267;28;20147;-74
2022/11/28 06:09:24;;;;;;;15.73;12.68;;;;;;;;;;4967035;28;20034;-74
2022/11/28 06:11:50;;;;;;;18.48;12.48;;;;;;;;;;4931685;28;20049;-76
2022/11/28 06:14:16;;;;;;;16.80;13.05;;;;;;;;;;4947139;28;20377;-72
2022/11/28 06:16:43;;;;;;;20.58;12.98;;;;;;;;;;4951045;28;20576;-74
2022/11/28 06:19:11;;;;;;;20.85;14.32;;;;;;;;;;4957391;28;20346;-73
2022/11/28 06:21:37;;;;;;;20.83;13.82;;;;;;;;;;4951373;28;20031;-73
2022/11/28 06:24:03;;;;;;;18.25;13.40;;;;;;;;;;4949816;28;20437;-72
2022/11/28 06:26:29;;;;;;;23.50;14.88;;;;;;;;;;4946741;28;20035;-73
2022/11/28 06:28:55;;;;;;;20.73;13.27;;;;;;;;;;4950735;29;20035;-74
2022/11/28 06:31:29;;;;;;;20.10;14.55;;;;;;;;;;4957400;28;20031;-73
2022/11/28 06:33:55;;;;;;;21.58;13.85;;;;;;;;;;4945817;28;20035;-76
2022/11/28 06:36:21;;;;;;;20.88;13.60;;;;;;;;;;4958475;28;20043;-76
2022/11/28 06:38:47;;;;;;;20.35;13.65;;;;;;;;;;4956641;28;20055;-74
2022/11/28 06:41:15;;;;;;;17.52;12.48;;;;;;;;;;4951456;29;20039;-75
2022/11/28 06:43:41;;;;;;;20.02;12.48;;;;;;;;;;4961237;28;20030;-73
2022/11/28 06:46:14;;;;;;;19.75;12.25;;;;;;;;;;4957246;28;20070;-74
2022/11/28 06:48:40;;;;;;;18.80;13.00;;;;;;;;;;4961661;28;20027;-73
2022/11/28 06:51:07;;;;;;;16.65;11.70;;;;;;;;;;4956766;28;20055;-73
2022/11/28 06:53:33;;;;;;;18.25;12.43;;;;;;;;;;4954852;28;20041;-73
2022/11/28 06:56:06;;;;;;;17.40;11.38;;;;;;;;;;4945103;28;20036;-74
2022/11/28 06:58:33;;;;;;;21.15;12.50;;;;;;;;;;4944280;28;20345;-73
2022/11/28 07:01:05;;;;;;;18.73;12.55;;;;;;;;;;4941936;28;20052;-75
2022/11/28 07:03:31;;;;;;;24.38;13.52;;;;;;;;;;4934478;29;20078;-73
2022/11/28 07:05:59;;;;;;;16.38;11.77;;;;;;;;;;4959922;28;20673;-75
2022/11/28 07:08:25;;;;;;;15.52;11.02;;;;;;;;;;4951660;28;20037;-75
2022/11/28 07:10:51;;;;;;;21.50;11.80;;;;;;;;;;4959102;28;20110;-73
2022/11/28 07:13:17;;;;;;;91.80;56.55;;;;;;;;;;4951540;29;20047;-74
2022/11/28 07:15:52;;;;;;;21.15;12.10;;;;;;;;;;4916108;28;20040;-73
2022/11/28 07:18:18;;;;;;;17.23;11.68;;;;;;;;;;4948865;28;20027;-73
2022/11/28 07:20:44;;;;;;;20.63;11.52;;;;;;;;;;4951239;28;20488;-74
2022/11/28 07:23:10;;;;;;;17.35;11.77;;;;;;;;;;4945985;28;20054;-72
2022/11/28 07:25:36;;;;;;;22.95;12.15;;;;;;;;;;4953070;28;20122;-75
2022/11/28 07:28:03;;;;;;;18.15;10.07;;;;;;;;;;4953852;28;20051;-74
2022/11/28 07:30:29;;;;;;;16.25;11.07;;;;;;;;;;4946889;28;20031;-73
2022/11/28 07:32:55;;;;;;;16.38;9.55;;;;;;;;;;4953133;28;20029;-75
2022/11/28 07:35:21;;;;;;;13.82;10.43;;;;;;;;;;4952479;28;20042;-73
2022/11/28 07:37:47;;;;;;;14.82;10.75;;;;;;;;;;4943623;28;20524;-75
2022/11/28 07:40:13;;;;;;;16.23;11.15;;;;;;;;;;4946773;28;20711;-73
2022/11/28 07:42:39;;;;;;;19.58;11.10;;;;;;;;;;4939203;28;20031;-75
2022/11/28 07:45:05;;;;;;;19.67;11.23;;;;;;;;;;4930461;28;20343;-73
2022/11/28 07:47:32;;;;;;;15.20;9.63;;;;;;;;;;4944320;28;20098;-73
2022/11/28 07:49:58;;;;;;;15.38;9.20;;;;;;;;;;4949200;28;20023;-73
2022/11/28 07:52:24;;;;;;;14.07;9.38;;;;;;;;;;4959697;28;20031;-72
2022/11/28 07:54:50;;;;;;;12.00;9.48;;;;;;;;;;4946074;28;20035;-72
2022/11/28 07:57:16;;;;;;;24.92;10.23;;;;;;;;;;4956778;28;20039;-75
2022/11/28 07:59:42;;;;;;;19.83;9.95;;;;;;;;;;4949975;28;20615;-72
2022/11/28 08:02:09;;;;;;;16.58;9.90;;;;;;;;;;4949949;28;20043;-73
2022/11/28 08:04:36;;;;;;;16.70;10.55;;;;;;;;;;4933089;28;20160;-72
2022/11/28 08:07:02;;;;;;;13.73;9.38;;;;;;;;;;4953768;29;20090;-73
2022/11/28 08:09:28;;;;;;;16.48;10.07;;;;;;;;;;4948946;28;20051;-74
2022/11/28 08:11:54;;;;;;;14.02;9.65;;;;;;;;;;4950518;28;20031;-74
2022/11/28 08:14:20;;;;;;;14.60;10.10;;;;;;;;;;4952106;28;20492;-73
2022/11/28 08:16:48;;;;;;;15.57;9.23;;;;;;;;;;4947129;28;20507;-73
2022/11/28 08:19:14;;;;;;;11.10;8.30;;;;;;;;;;4951647;28;20058;-75
2022/11/28 08:21:40;;;;;;;10.60;8.40;;;;;;;;;;4942601;28;20020;-74
2022/11/28 08:24:06;;;;;;;12.55;8.82;;;;;;;;;;4962377;28;20480;-74
2022/11/28 08:26:33;;;;;;;24.73;15.98;;;;;;;;;;4940405;28;20312;-72
2022/11/28 08:28:59;;;;;;;12.02;8.93;;;;;;;;;;4932083;28;20544;-72
2022/11/28 08:31:27;;;;;;;12.93;9.13;;;;;;;;;;4952005;28;20049;-73
2022/11/28 08:33:54;;;;;;;12.55;8.55;;;;;;;;;;4953577;28;20038;-73
2022/11/28 08:36:20;;;;;;;14.40;9.35;;;;;;;;;;4935678;29;20040;-73
2022/11/28 08:38:46;;;;;;;11.35;8.40;;;;;;;;;;4948510;28;20043;-73
2022/11/28 08:41:14;;;;;;;12.95;10.25;;;;;;;;;;4950628;28;20028;-72
2022/11/28 08:43:40;;;;;;;14.63;9.32;;;;;;;;;;4949112;28;20495;-74
2022/11/28 08:46:09;;;;;;;16.80;10.48;;;;;;;;;;4950635;28;20421;-73
2022/11/28 08:48:35;;;;;;;15.80;10.52;;;;;;;;;;4945739;28;20046;-73
2022/11/28 08:51:01;;;;;;;18.02;11.27;;;;;;;;;;4943752;28;20440;-69
2022/11/28 08:53:27;;;;;;;19.15;12.57;;;;;;;;;;4946739;28;20038;-70
2022/11/28 08:55:54;;;;;;;18.23;11.93;;;;;;;;;;4947570;28;20035;-74
2022/11/28 08:58:20;;;;;;;19.83;11.70;;;;;;;;;;4950502;28;20039;-71
2022/11/28 09:00:46;;;;;;;21.50;12.15;;;;;;;;;;4947830;28;20052;-71
2022/11/28 09:03:16;;;;;;;25.63;15.75;;;;;;;;;;4924277;28;20074;-72
2022/11/28 09:05:44;;;;;;;19.42;12.93;;;;;;;;;;4942164;28;20050;-73
2022/11/28 09:08:10;;;;;;;20.98;14.57;;;;;;;;;;4928454;28;20118;-69
2022/11/28 09:10:37;;;;;;;21.80;13.25;;;;;;;;;;4930745;28;20044;-72
2022/11/28 09:13:03;;;;;;;22.45;13.88;;;;;;;;;;4943777;28;20072;-73
2022/11/28 09:15:29;;;;;;;27.08;15.68;;;;;;;;;;4930202;28;20063;-72
2022/11/28 09:17:55;;;;;;;20.00;13.07;;;;;;;;;;4947852;28;20428;-72
2022/11/28 09:20:21;;;;;;;21.23;14.70;;;;;;;;;;4931740;28;20055;-74
2022/11/28 09:22:47;;;;;;;23.15;13.68;;;;;;;;;;4944432;28;20044;-74
2022/11/28 09:25:14;;;;;;;27.25;15.57;;;;;;;;;;4946743;28;20150;-76
2022/11/28 09:27:40;;;;;;;26.45;14.55;;;;;;;;;;4944019;28;20063;-71
2022/11/28 09:30:08;;;;;;;25.17;15.98;;;;;;;;;;4946429;28;20525;-71
2022/11/28 09:32:34;;;;;;;24.15;15.18;;;;;;;;;;4947437;28;20046;-73
2022/11/28 09:35:00;;;;;;;30.83;18.27;;;;;;;;;;4924476;28;20485;-72
2022/11/28 09:37:30;;;;;;;31.65;17.55;;;;;;;;;;4946258;28;20058;-73
2022/11/28 09:39:56;;;;;;;30.75;17.63;;;;;;;;;;4943559;28;20157;-75
2022/11/28 09:42:22;;;;;;;27.13;16.10;;;;;;;;;;4927879;28;20043;-72
2022/11/28 09:44:51;;;;;;;30.98;17.42;;;;;;;;;;4947292;28;20484;-72
2022/11/28 09:47:28;;;;;;;29.98;17.40;;;;;;;;;;4927989;28;20182;-72
2022/11/28 09:49:57;;;;;;;28.40;17.13;;;;;;;;;;4948455;28;20031;-72
2022/11/28 09:52:29;;;;;;;29.13;16.70;;;;;;;;;;4945326;28;20753;-75
2022/11/28 09:54:55;;;;;;;22.50;15.65;;;;;;;;;;4945171;28;20066;-72
2022/11/28 09:57:29;;;;;;;27.58;15.43;;;;;;;;;;4945343;28;20035;-72
2022/11/28 09:59:56;;;;;;;29.38;15.85;;;;;;;;;;4944146;28;20031;-72
2022/11/28 10:02:25;;;;;;;24.73;15.63;;;;;;;;;;4927956;28;20183;-72
2022/11/28 10:04:54;;;;;;;26.20;16.73;;;;;;;;;;4946749;28;20052;-75
2022/11/28 10:07:26;;;;;;;26.30;15.48;;;;;;;;;;4943642;28;20035;-73
2022/11/28 10:10:11;;;;;;;23.42;14.00;;;;;;;;;;4945829;28;20034;-73
2022/11/28 10:12:37;;;;;;;21.25;15.02;;;;;;;;;;4945051;28;20106;-74
2022/11/28 10:15:15;;;;;;;25.50;14.55;;;;;;;;;;4944365;28;20118;-72
2022/11/28 10:17:41;;;;;;;22.15;14.75;;;;;;;;;;4940669;28;20031;-73
2022/11/28 10:20:11;;;;;;;24.45;15.48;;;;;;;;;;4947384;28;20357;-72
2022/11/28 10:22:37;;;;;;;24.48;16.17;;;;;;;;;;4945999;28;20099;-73
2022/11/28 10:25:06;;;;;;;24.35;16.40;;;;;;;;;;4928548;28;20485;-72
2022/11/28 10:27:35;;;;;;;28.95;15.95;;;;;;;;;;4923963;29;20469;-73
2022/11/28 10:30:04;;;;;;;18.90;14.55;;;;;;;;;;4924417;29;20426;-72
2022/11/28 10:32:41;;;;;;;20.33;13.60;;;;;;;;;;4923654;29;20374;-72
2022/11/28 10:35:12;;;;;;;21.45;13.38;;;;;;;;;;4923876;29;20040;-73
2022/11/28 10:37:39;;;;;;;17.30;12.57;;;;;;;;;;4926450;29;20484;-73
2022/11/28 10:40:23;;;;;;;14.50;11.52;;;;;;;;;;4925177;29;20039;-71
2022/11/28 10:43:00;;;;;;;16.88;12.65;;;;;;;;;;4919958;29;20031;-74
2022/11/28 10:45:35;;;;;;;21.63;13.23;;;;;;;;;;4930074;29;20028;-75
2022/11/28 10:48:11;;;;;;;22.15;12.93;;;;;;;;;;4930459;29;20028;-72
2022/11/28 10:50:47;;;;;;;15.88;11.50;;;;;;;;;;4935775;29;20031;-71
2022/11/28 10:53:19;;;;;;;17.77;11.80;;;;;;;;;;4926268;29;20781;-72
2022/11/28 10:55:48;;;;;;;18.33;11.45;;;;;;;;;;4923139;29;20034;-72
2022/11/28 10:58:24;;;;;;;12.75;9.95;;;;;;;;;;4937002;29;20476;-74
2022/11/28 11:00:55;;;;;;;15.00;10.43;;;;;;;;;;4916157;29;20142;-75
2022/11/28 11:03:25;;;;;;;13.13;10.25;;;;;;;;;;4923496;29;20024;-73
2022/11/28 11:05:51;;;;;;;13.02;10.18;;;;;;;;;;4924920;29;20349;-75
2022/11/28 11:08:25;;;;;;;14.13;10.43;;;;;;;;;;4928676;29;20035;-75
2022/11/28 11:10:55;;;;;;;12.20;9.48;;;;;;;;;;4940087;29;20035;-73
2022/11/28 11:13:26;;;;;;;11.43;9.07;;;;;;;;;;4932213;29;20069;-73
2022/11/28 11:16:12;;;;;;;14.98;12.15;;;;;;;;;;4928812;29;20099;-71
2022/11/28 11:18:51;;;;;;;12.20;9.55;;;;;;;;;;4928566;29;20495;-70
2022/11/28 11:21:17;;;;;;;13.32;10.23;;;;;;;;;;4927531;29;20422;-71
2022/11/28 11:23:44;;;;;;;11.43;9.32;;;;;;;;;;4928870;29;20557;-71
2022/11/28 11:26:21;;;;;;;15.60;10.80;;;;;;;;;;4939265;29;20074;-74
2022/11/28 11:28:49;;;;;;;13.27;9.57;;;;;;;;;;4929790;29;20031;-71
2022/11/28 11:31:15;;;;;;;14.48;10.05;;;;;;;;;;4927489;29;20169;-73
2022/11/28 11:33:42;;;;;;;14.43;10.30;;;;;;;;;;4934004;29;20019;-73
2022/11/28 11:36:22;;;;;;;15.23;10.88;;;;;;;;;;4943746;29;20605;-72
2022/11/28 11:38:48;;;;;;;13.68;10.82;;;;;;;;;;4929212;29;20038;-72
2022/11/28 11:41:20;;;;;;;12.98;9.40;;;;;;;;;;4922988;29;20385;-76
2022/11/28 11:43:46;;;;;;;14.10;10.40;;;;;;;;;;4932324;29;20028;-80
2022/11/28 11:46:14;;;;;;;13.48;11.05;;;;;;;;;;4930853;29;20043;-71
2022/11/28 11:48:42;;;;;;;15.18;10.75;;;;;;;;;;4932995;29;20509;-75
2022/11/28 11:51:20;;;;;;;13.10;9.80;;;;;;;;;;4925470;29;20063;-79
2022/11/28 11:53:46;;;;;;;12.32;9.90;;;;;;;;;;4940291;29;20092;-74
2022/11/28 11:56:12;;;;;;;15.23;10.60;;;;;;;;;;4930776;29;20035;-72
2022/11/28 11:58:43;;;;;;;15.38;9.85;;;;;;;;;;4928772;29;20082;-73
2022/11/28 12:01:10;;;;;;;17.30;12.02;;;;;;;;;;4930484;29;20024;-73
2022/11/28 12:03:40;;;;;;;16.00;12.25;;;;;;;;;;4929496;29;20028;-72
2022/11/28 12:06:25;;;;;;;20.58;12.25;;;;;;;;;;4931566;29;20031;-73
2022/11/28 12:08:52;;;;;;;18.13;11.88;;;;;;;;;;4929663;29;20024;-75
2022/11/28 12:11:26;;;;;;;23.08;13.05;;;;;;;;;;4930835;29;20035;-74
2022/11/28 12:13:52;;;;;;;19.60;12.65;;;;;;;;;;4938317;29;20036;-74
2022/11/28 12:16:39;;;;;;;19.45;13.40;;;;;;;;;;4948238;29;20114;-74
2022/11/28 12:19:29;;;;;;;21.13;12.77;;;;;;;;;;4931422;29;20039;-75
2022/11/28 12:22:07;;;;;;;21.00;14.30;;;;;;;;;;4914251;29;20020;-74
2022/11/28 12:24:40;;;;;;;22.05;13.98;;;;;;;;;;4942875;28;20472;-71
2022/11/28 12:27:12;;;;;;;21.70;14.57;;;;;;;;;;4948241;29;20047;-72
2022/11/28 12:29:47;;;;;;;21.95;13.95;;;;;;;;;;4939128;28;20079;-74
2022/11/28 12:32:21;;;;;;;23.05;14.73;;;;;;;;;;4954596;28;20117;-75
2022/11/28 12:35:08;;;;;;;23.95;15.55;;;;;;;;;;4935003;29;20027;-72
2022/11/28 12:37:44;;;;;;;27.40;15.57;;;;;;;;;;4947651;28;20059;-72
2022/11/28 12:40:15;;;;;;;23.42;15.45;;;;;;;;;;4934794;29;20417;-74
2022/11/28 12:42:53;;;;;;;29.30;15.88;;;;;;;;;;4948653;28;20042;-75
2022/11/28 12:45:22;;;;;;;25.27;15.82;;;;;;;;;;4937894;29;20039;-72
2022/11/28 12:47:48;;;;;;;25.40;15.43;;;;;;;;;;4953403;29;20043;-72
2022/11/28 12:50:21;;;;;;;24.50;15.00;;;;;;;;;;4960003;28;20030;-75
2022/11/28 12:52:47;;;;;;;24.60;15.82;;;;;;;;;;4962833;28;20452;-72
2022/11/28 12:55:16;;;;;;;27.27;15.88;;;;;;;;;;4953907;29;20038;-72
2022/11/28 12:57:57;;;;;;;26.23;15.65;;;;;;;;;;4953365;29;20468;-73
2022/11/28 13:00:26;;;;;;;28.70;15.38;;;;;;;;;;4950881;29;20027;-74
2022/11/28 13:03:01;;;;;;;29.33;16.27;;;;;;;;;;4942213;28;20102;-72
2022/11/28 13:05:41;;;;;;;31.75;17.50;;;;;;;;;;4954662;28;20038;-73
2022/11/28 13:08:26;;;;;;;32.92;16.33;;;;;;;;;;4936688;29;20038;-73
2022/11/28 13:11:01;;;;;;;31.25;17.27;;;;;;;;;;4950382;28;20039;-74
2022/11/28 13:13:32;;;;;;;28.52;16.92;;;;;;;;;;4954877;28;20484;-72
2022/11/28 13:16:30;;;;;;;31.27;16.50;;;;;;;;;;4935104;29;20054;-73
2022/11/28 13:19:21;;;;;;;46.90;25.25;;;;;;;;;;4910060;29;20040;-71
2022/11/28 13:22:10;;;;;;;33.03;17.13;;;;;;;;;;4964819;28;20035;-70
2022/11/28 13:24:52;;;;;;;32.88;17.08;;;;;;;;;;4935233;29;20067;-71
2022/11/28 13:27:24;;;;;;;31.55;16.65;;;;;;;;;;4948411;29;20340;-72
2022/11/28 13:29:56;;;;;;;33.60;17.13;;;;;;;;;;4917167;29;20038;-71
2022/11/28 13:32:38;;;;;;;37.63;18.00;;;;;;;;;;4928432;29;20068;-73
2022/11/28 13:35:05;;;;;;;32.55;16.88;;;;;;;;;;4933966;29;20039;-70
2022/11/28 13:37:36;;;;;;;37.40;18.20;;;;;;;;;;4939649;29;20028;-71
2022/11/28 13:40:17;;;;;;;37.05;17.58;;;;;;;;;;4937238;29;20432;-71
2022/11/28 13:42:56;;;;;;;37.92;17.23;;;;;;;;;;4917263;29;20492;-72
2022/11/28 13:45:22;;;;;;;45.55;23.75;;;;;;;;;;4916736;29;20081;-71
2022/11/28 13:47:48;;;;;;;43.35;24.27;;;;;;;;;;4931001;29;20028;-71
2022/11/28 13:50:29;;;;;;;35.22;17.23;;;;;;;;;;4932097;29;20035;-71
2022/11/28 13:53:11;;;;;;;37.58;19.00;;;;;;;;;;4925665;29;20048;-71
2022/11/28 13:55:45;;;;;;;40.53;18.80;;;;;;;;;;4933169;29;20032;-72
2022/11/28 13:58:18;;;;;;;38.30;18.17;;;;;;;;;;4938717;29;20446;-71
2022/11/28 14:01:04;;;;;;;40.35;20.08;;;;;;;;;;4931593;29;20378;-72
2022/11/28 14:03:34;;;;;;;41.40;20.05;;;;;;;;;;4918495;29;20477;-71
2022/11/28 14:06:01;;;;;;;49.90;22.15;;;;;;;;;;4931055;29;20050;-71
2022/11/28 14:08:30;;;;;;;45.22;21.15;;;;;;;;;;4932805;29;20040;-73
2022/11/28 14:11:15;;;;;;;47.05;20.58;;;;;;;;;;4932316;29;20031;-73
2022/11/28 14:13:44;;;;;;;44.53;20.40;;;;;;;;;;4932201;29;20035;-72
2022/11/28 14:16:30;;;;;;;51.47;23.42;;;;;;;;;;4942116;29;20080;-71
2022/11/28 14:19:02;;;;;;;61.13;23.27;;;;;;;;;;4928770;29;20024;-72
2022/11/28 14:21:38;;;;;;;62.72;25.23;;;;;;;;;;4931183;29;20036;-74
2022/11/28 14:24:04;;;;;;;57.17;21.90;;;;;;;;;;4941963;28;20449;-72
2022/11/28 14:26:34;;;;;;;52.75;25.17;;;;;;;;;;4951676;29;20031;-71
2022/11/28 14:29:03;;;;;;;60.08;23.60;;;;;;;;;;4933969;29;20392;-71
2022/11/28 14:31:37;;;;;;;65.60;25.52;;;;;;;;;;4927463;29;20036;-71
2022/11/28 14:34:05;;;;;;;61.40;24.05;;;;;;;;;;4923406;29;20036;-71